createdAt,value
2023-03-16T00:00:00.046Z,7.26
2023-03-16T00:02:30.847Z,7.33
2023-03-16T00:05:01.862Z,7.37
2023-03-16T00:07:33.331Z,7.42
2023-03-16T00:10:04.023Z,7.45
2023-03-16T00:12:34.996Z,7.48
2023-03-16T00:15:09.500Z,7.51
2023-03-16T00:17:40.148Z,7.53
2023-03-16T00:20:12.135Z,7.56
2023-03-16T00:22:42.732Z,7.56
2023-03-16T00:25:14.599Z,7.59
2023-03-16T00:27:48.204Z,7.60
2023-03-16T00:30:21.685Z,7.62
2023-03-16T00:32:54.232Z,7.63
2023-03-16T00:35:24.893Z,7.65
2023-03-16T00:37:57.751Z,7.66
2023-03-16T00:40:29.147Z,7.68
2023-03-16T00:43:00.163Z,7.68
2023-03-16T00:45:33.579Z,7.68
2023-03-16T00:48:04.183Z,7.67
2023-03-16T00:50:34.685Z,7.66
2023-03-16T00:53:05.318Z,7.66
2023-03-16T00:55:35.893Z,7.66
2023-03-16T00:58:06.676Z,7.65
2023-03-16T01:00:40.479Z,7.66
2023-03-16T01:03:11.133Z,7.65
2023-03-16T01:05:44.110Z,7.64
2023-03-16T01:08:14.967Z,7.61
2023-03-16T01:10:45.530Z,7.60
2023-03-16T01:13:16.602Z,7.60
2023-03-16T01:15:49.884Z,7.59
2023-03-16T01:18:20.733Z,7.58
2023-03-16T01:20:51.692Z,7.59
2023-03-16T01:23:22.975Z,7.56
2023-03-16T01:25:55.830Z,7.57
2023-03-16T01:28:28.488Z,7.56
2023-03-16T01:31:04.830Z,7.54
2023-03-16T01:33:37.167Z,7.54
2023-03-16T01:36:13.691Z,7.52
2023-03-16T01:38:51.414Z,7.51
2023-03-16T01:41:22.372Z,7.51
2023-03-16T01:43:54.051Z,7.48
2023-03-16T01:46:29.728Z,7.44
2023-03-16T01:49:09.870Z,7.42
2023-03-16T01:51:50.603Z,7.39
2023-03-16T01:54:29.073Z,7.41
2023-03-16T01:57:04.883Z,7.37
2023-03-16T01:59:39.074Z,7.33
2023-03-16T02:02:12.983Z,7.28
2023-03-16T02:04:48.507Z,7.27
2023-03-16T02:07:24.961Z,7.23
2023-03-16T02:10:00.493Z,7.19
2023-03-16T02:12:31.277Z,7.18
2023-03-16T02:15:04.855Z,7.16
2023-03-16T02:18:00.405Z,7.14
2023-03-16T02:20:39.665Z,7.11
2023-03-16T02:23:18.690Z,7.10
2023-03-16T02:25:59.693Z,7.10
2023-03-16T02:28:39.109Z,7.02
2023-03-16T02:31:12.605Z,7.09
2023-03-16T02:33:43.862Z,7.05
2023-03-16T02:36:15.914Z,7.02
2023-03-16T02:38:46.639Z,6.96
2023-03-16T02:41:22.827Z,6.96
2023-03-16T02:44:06.937Z,6.96
2023-03-16T02:46:43.730Z,6.96
2023-03-16T02:49:20.908Z,6.94
2023-03-16T02:51:51.962Z,6.91
2023-03-16T02:54:23.356Z,6.92
2023-03-16T02:56:54.058Z,6.90
2023-03-16T02:59:25.471Z,6.88
2023-03-16T03:01:58.671Z,6.85
2023-03-16T03:04:29.232Z,6.79
2023-03-16T03:07:05.136Z,6.74
2023-03-16T03:09:53.824Z,6.67
2023-03-16T03:12:24.604Z,6.62
2023-03-16T03:14:57.540Z,6.57
2023-03-16T03:17:32.890Z,6.56
2023-03-16T03:20:13.965Z,6.54
2023-03-16T03:22:45.340Z,6.51
2023-03-16T03:25:17.135Z,6.47
2023-03-16T03:27:49.058Z,6.45
2023-03-16T03:30:25.111Z,6.40
2023-03-16T03:32:58.448Z,6.37
2023-03-16T03:35:29.001Z,6.34
2023-03-16T03:37:59.672Z,6.30
2023-03-16T03:40:30.601Z,6.26
2023-03-16T03:43:05.074Z,6.23
2023-03-16T03:45:38.819Z,6.20
2023-03-16T03:48:12.110Z,6.14
2023-03-16T03:50:42.775Z,6.09
2023-03-16T03:53:32.496Z,6.03
2023-03-16T03:56:23.608Z,6.00
2023-03-16T03:58:54.143Z,5.99
2023-03-16T04:01:38.135Z,5.99
2023-03-16T04:04:11.207Z,6.00
2023-03-16T04:06:41.872Z,6.00
2023-03-16T04:09:12.475Z,5.98
2023-03-16T04:11:43.133Z,5.96
2023-03-16T04:14:13.761Z,5.89
2023-03-16T04:16:44.599Z,5.85
2023-03-16T04:19:19.693Z,5.81
2023-03-16T04:21:50.552Z,5.78
2023-03-16T04:24:22.819Z,5.75
2023-03-16T04:26:54.470Z,5.74
2023-03-16T04:29:25.614Z,5.74
2023-03-16T04:31:56.923Z,5.75
2023-03-16T04:34:31.881Z,5.73
2023-03-16T04:37:05.452Z,5.73
2023-03-16T04:39:38.605Z,5.70
2023-03-16T04:42:10.077Z,5.72
2023-03-16T04:44:44.473Z,5.69
2023-03-16T04:47:17.722Z,5.65
2023-03-16T04:49:51.394Z,5.62
2023-03-16T04:52:22.610Z,5.60
2023-03-16T04:54:53.401Z,5.60
2023-03-16T04:57:24.484Z,5.60
2023-03-16T04:59:56.858Z,5.58
2023-03-16T05:02:34.251Z,5.55
2023-03-16T05:05:09.469Z,5.51
2023-03-16T05:07:42.872Z,5.46
2023-03-16T05:10:16.965Z,5.42
2023-03-16T05:12:48.074Z,5.39
2023-03-16T05:15:19.015Z,5.36
2023-03-16T05:17:59.654Z,5.30
2023-03-16T05:20:33.150Z,5.30
2023-03-16T05:23:07.801Z,5.29
2023-03-16T05:25:47.125Z,5.28
2023-03-16T05:28:20.229Z,5.28
2023-03-16T05:30:59.702Z,5.26
2023-03-16T05:33:31.502Z,5.23
2023-03-16T05:36:11.577Z,5.25
2023-03-16T05:38:44.133Z,5.22
2023-03-16T05:41:21.581Z,5.19
2023-03-16T05:44:05.934Z,5.16
2023-03-16T05:46:57.262Z,5.14
2023-03-16T05:49:28.039Z,5.13
2023-03-16T05:52:01.659Z,5.13
2023-03-16T05:54:34.553Z,5.08
2023-03-16T05:57:07.002Z,5.10
2023-03-16T05:59:38.838Z,5.06
2023-03-16T06:02:11.536Z,4.96
2023-03-16T06:04:42.233Z,4.90
2023-03-16T06:07:15.665Z,4.86
2023-03-16T06:09:48.816Z,4.83
2023-03-16T06:12:20.463Z,4.80
2023-03-16T06:14:51.444Z,4.77
2023-03-16T06:17:22.005Z,4.75
2023-03-16T06:19:52.891Z,4.74
2023-03-16T06:22:26.383Z,4.72
2023-03-16T06:24:57.094Z,4.69
2023-03-16T06:27:28.788Z,4.66
2023-03-16T06:30:16.162Z,4.64
2023-03-16T06:32:48.410Z,4.62
2023-03-16T06:35:19.133Z,4.63
2023-03-16T06:38:04.255Z,4.61
2023-03-16T06:40:48.020Z,4.60
2023-03-16T06:43:18.986Z,4.54
2023-03-16T06:45:49.908Z,4.49
2023-03-16T06:48:20.748Z,4.45
2023-03-16T06:50:51.944Z,4.43
2023-03-16T06:53:30.301Z,4.41
2023-03-16T06:56:02.451Z,4.38
2023-03-16T06:58:35.976Z,4.38
2023-03-16T07:01:07.619Z,4.36
2023-03-16T07:03:38.342Z,4.34
2023-03-16T07:06:17.839Z,4.29
2023-03-16T07:08:51.810Z,4.27
2023-03-16T07:11:23.778Z,4.21
2023-03-16T07:13:54.732Z,4.16
2023-03-16T07:16:26.779Z,4.12
2023-03-16T07:18:58.022Z,4.07
2023-03-16T07:21:29.183Z,4.03
2023-03-16T07:24:02.514Z,4.00
2023-03-16T07:26:39.693Z,4.01
2023-03-16T07:29:12.558Z,4.02
2023-03-16T07:31:43.585Z,4.04
2023-03-16T07:34:19.464Z,4.09
2023-03-16T07:36:55.420Z,4.12
2023-03-16T07:39:31.973Z,4.14
2023-03-16T07:42:11.802Z,4.17
2023-03-16T07:44:56.742Z,4.17
2023-03-16T07:47:27.503Z,4.16
2023-03-16T07:50:02.268Z,4.13
2023-03-16T07:52:37.122Z,4.11
2023-03-16T07:55:12.115Z,4.09
2023-03-16T07:57:47.966Z,4.10
2023-03-16T08:00:24.380Z,4.13
2023-03-16T08:02:56.492Z,4.15
2023-03-16T08:05:27.918Z,4.17
2023-03-16T08:08:04.250Z,4.15
2023-03-16T08:10:39.326Z,4.13
2023-03-16T08:13:15.191Z,4.14
2023-03-16T08:15:56.178Z,4.13
2023-03-16T08:18:32.827Z,4.10
2023-03-16T08:21:03.596Z,4.11
2023-03-16T08:23:36.375Z,4.10
2023-03-16T08:26:10.394Z,4.12
2023-03-16T08:28:42.523Z,4.12
2023-03-16T08:31:16.839Z,4.11
2023-03-16T08:34:14.383Z,4.07
2023-03-16T08:36:47.518Z,4.04
2023-03-16T08:39:18.704Z,4.04
2023-03-16T08:41:54.194Z,4.05
2023-03-16T08:44:40.492Z,4.07
2023-03-16T08:47:12.245Z,4.08
2023-03-16T08:49:46.072Z,4.05
2023-03-16T08:52:18.932Z,3.92
2023-03-16T08:55:01.912Z,4.01
2023-03-16T08:57:37.791Z,4.03
2023-03-16T09:00:13.637Z,4.06
2023-03-16T09:02:44.683Z,4.08
2023-03-16T09:05:18.508Z,4.10
2023-03-16T09:07:49.170Z,4.12
2023-03-16T09:10:20.201Z,4.14
2023-03-16T09:12:53.689Z,4.18
2023-03-16T09:15:24.751Z,4.16
2023-03-16T09:17:56.062Z,4.15
2023-03-16T09:20:30.007Z,4.11
2023-03-16T09:23:01.522Z,4.07
2023-03-16T09:25:32.629Z,4.01
2023-03-16T09:28:05.879Z,4.00
2023-03-16T09:30:36.512Z,4.00
2023-03-16T09:33:08.009Z,4.00
2023-03-16T09:35:39.232Z,4.04
2023-03-16T09:38:10.219Z,4.07
2023-03-16T09:40:41.652Z,4.09
2023-03-16T09:43:26.484Z,4.10
2023-03-16T09:46:06.934Z,4.11
2023-03-16T09:48:41.325Z,4.10
2023-03-16T09:51:21.310Z,4.12
2023-03-16T09:53:59.516Z,4.09
2023-03-16T09:56:34.123Z,4.05
2023-03-16T09:59:14.660Z,4.04
2023-03-16T10:01:54.102Z,4.05
2023-03-16T10:04:40.648Z,4.07
2023-03-16T10:07:23.102Z,4.05
2023-03-16T10:10:00.189Z,4.05
2023-03-16T10:12:41.590Z,4.07
2023-03-16T10:15:18.888Z,4.10
2023-03-16T10:17:55.685Z,4.12
2023-03-16T10:20:28.053Z,4.04
2023-03-16T10:23:00.991Z,4.09
2023-03-16T10:25:38.752Z,4.05
2023-03-16T10:28:09.300Z,4.04
2023-03-16T10:30:43.034Z,4.05
2023-03-16T10:33:24.301Z,4.03
2023-03-16T10:36:01.639Z,3.99
2023-03-16T10:38:38.909Z,3.96
2023-03-16T10:41:22.686Z,3.93
2023-03-16T10:43:55.801Z,3.94
2023-03-16T10:46:31.409Z,3.97
2023-03-16T10:49:03.322Z,3.98
2023-03-16T10:51:36.674Z,3.99
2023-03-16T10:54:14.428Z,4.00
2023-03-16T10:56:46.323Z,4.00
2023-03-16T10:59:19.081Z,3.98
2023-03-16T11:01:53.088Z,4.00
2023-03-16T11:04:24.619Z,4.03
2023-03-16T11:06:57.787Z,4.04
2023-03-16T11:09:30.039Z,4.04
2023-03-16T11:12:00.559Z,4.04
2023-03-16T11:14:34.026Z,4.01
2023-03-16T11:17:14.569Z,4.08
2023-03-16T11:19:53.070Z,4.08
2023-03-16T11:22:26.184Z,4.10
2023-03-16T11:25:04.490Z,4.12
2023-03-16T11:27:40.747Z,4.13
2023-03-16T11:30:20.293Z,4.13
2023-03-16T11:32:55.392Z,4.13
2023-03-16T11:35:32.920Z,4.13
2023-03-16T11:38:16.016Z,4.12
2023-03-16T11:40:59.273Z,4.11
2023-03-16T11:43:50.408Z,4.06
2023-03-16T11:46:25.243Z,4.02
2023-03-16T11:49:13.569Z,3.98
2023-03-16T11:51:51.931Z,3.97
2023-03-16T11:54:51.129Z,4.00
2023-03-16T11:57:33.812Z,4.02
2023-03-16T12:00:16.430Z,4.03
2023-03-16T12:02:57.933Z,4.07
2023-03-16T12:05:48.003Z,4.11
2023-03-16T12:08:50.502Z,4.05
2023-03-16T12:11:26.784Z,4.17
2023-03-16T12:14:10.937Z,4.21
2023-03-16T12:16:49.838Z,4.23
2023-03-16T12:19:25.959Z,4.25
2023-03-16T12:22:07.262Z,4.28
2023-03-16T12:24:47.228Z,4.27
2023-03-16T12:27:20.604Z,4.25
2023-03-16T12:30:02.680Z,4.22
2023-03-16T12:32:45.825Z,4.18
2023-03-16T12:35:27.995Z,4.18
2023-03-16T12:38:20.782Z,4.18
2023-03-16T12:40:59.129Z,4.16
2023-03-16T12:43:45.981Z,4.13
2023-03-16T12:46:19.084Z,4.11
2023-03-16T12:48:53.153Z,4.06
2023-03-16T12:51:23.729Z,4.00
2023-03-16T12:53:59.393Z,3.96
2023-03-16T12:56:32.603Z,3.89
2023-03-16T12:59:06.031Z,3.85
2023-03-16T13:01:44.432Z,3.79
2023-03-16T13:04:19.557Z,3.76
2023-03-16T13:06:52.523Z,3.71
2023-03-16T13:09:32.048Z,3.74
2023-03-16T13:12:05.236Z,3.73
2023-03-16T13:14:42.027Z,3.72
2023-03-16T13:17:29.046Z,3.71
2023-03-16T13:20:30.834Z,3.72
2023-03-16T13:23:23.337Z,3.70
2023-03-16T13:26:17.118Z,3.69
2023-03-16T13:28:53.761Z,3.71
2023-03-16T13:31:28.911Z,3.72
2023-03-16T13:34:00.662Z,3.70
2023-03-16T13:36:32.930Z,3.70
2023-03-16T13:39:10.217Z,3.70
2023-03-16T13:41:43.761Z,3.71
2023-03-16T13:44:19.043Z,3.72
2023-03-16T13:46:52.021Z,3.77
2023-03-16T13:49:22.941Z,3.73
2023-03-16T13:51:54.003Z,3.78
2023-03-16T13:54:30.057Z,3.80
2023-03-16T13:57:07.421Z,3.79
2023-03-16T13:59:38.265Z,3.81
2023-03-16T14:02:20.966Z,3.79
2023-03-16T14:04:51.586Z,3.79
2023-03-16T14:07:24.968Z,3.76
2023-03-16T14:09:59.423Z,3.78
2023-03-16T14:12:32.523Z,3.81
2023-03-16T14:15:03.205Z,3.78
2023-03-16T14:17:34.030Z,3.75
2023-03-16T14:20:05.573Z,3.72
2023-03-16T14:22:37.998Z,3.69
2023-03-16T14:25:10.583Z,3.67
2023-03-16T14:27:49.069Z,3.66
2023-03-16T14:30:24.710Z,3.71
2023-03-16T14:33:00.420Z,3.75
2023-03-16T14:35:33.671Z,3.79
2023-03-16T14:38:25.308Z,3.83
2023-03-16T14:40:57.750Z,3.81
2023-03-16T14:43:33.966Z,3.79
2023-03-16T14:46:07.620Z,3.74
2023-03-16T14:48:38.943Z,3.70
2023-03-16T14:51:14.397Z,3.70
2023-03-16T14:53:44.957Z,3.71
2023-03-16T14:56:16.859Z,3.72
2023-03-16T14:58:50.030Z,3.74
2023-03-16T15:01:21.087Z,3.75
2023-03-16T15:03:52.457Z,3.75
2023-03-16T15:06:23.189Z,3.73
2023-03-16T15:08:54.634Z,3.75
2023-03-16T15:11:26.405Z,3.74
2023-03-16T15:14:15.073Z,3.73
2023-03-16T15:16:45.670Z,3.71
2023-03-16T15:19:16.380Z,3.69
2023-03-16T15:21:47.126Z,3.67
2023-03-16T15:24:17.659Z,3.66
2023-03-16T15:26:48.335Z,3.65
2023-03-16T15:29:21.815Z,3.57
2023-03-16T15:31:54.493Z,3.61
2023-03-16T15:34:27.550Z,3.59
2023-03-16T15:36:58.078Z,3.56
2023-03-16T15:39:28.852Z,3.53
2023-03-16T15:41:59.467Z,3.49
2023-03-16T15:44:32.517Z,3.43
2023-03-16T15:47:03.453Z,3.40
2023-03-16T15:49:46.489Z,3.38
2023-03-16T15:52:28.629Z,3.35
2023-03-16T15:55:04.786Z,3.35
2023-03-16T15:57:35.535Z,3.34
2023-03-16T16:00:11.032Z,3.35
2023-03-16T16:02:41.738Z,3.33
2023-03-16T16:05:13.206Z,3.33
2023-03-16T16:07:43.797Z,3.29
2023-03-16T16:10:17.060Z,3.23
2023-03-16T16:12:51.662Z,3.20
2023-03-16T16:15:29.795Z,3.18
2023-03-16T16:18:21.331Z,3.18
2023-03-16T16:20:51.743Z,3.19
2023-03-16T16:23:22.362Z,3.16
2023-03-16T16:25:54.797Z,3.16
2023-03-16T16:28:28.092Z,2.86
2023-03-16T16:31:03.165Z,2.41
2023-03-16T16:33:35.971Z,1.95
2023-03-16T16:36:08.572Z,1.66
2023-03-16T16:38:39.189Z,1.69
2023-03-16T16:41:12.261Z,1.46
2023-03-16T16:43:45.528Z,1.20
2023-03-16T16:46:21.453Z,0.89
2023-03-16T16:48:53.761Z,0.67
2023-03-16T16:51:27.378Z,0.55
2023-03-16T16:54:00.287Z,0.39
2023-03-16T16:56:33.556Z,0.29
2023-03-16T16:59:13.972Z,0.26
2023-03-16T17:01:47.883Z,0.28
2023-03-16T17:07:24.339Z,0.43
2023-03-16T17:09:55.550Z,0.48
2023-03-16T17:12:29.120Z,0.60
2023-03-16T17:14:59.614Z,0.71
2023-03-16T17:17:33.156Z,0.73
2023-03-16T17:20:06.061Z,0.73
2023-03-16T17:22:36.549Z,0.56
2023-03-16T17:25:08.777Z,0.39
2023-03-16T17:27:39.945Z,0.28
2023-03-16T17:30:24.192Z,0.25
2023-03-16T17:32:59.909Z,0.30
2023-03-16T17:35:30.278Z,0.42
2023-03-16T17:38:01.092Z,0.48
2023-03-16T17:40:33.808Z,0.52
2023-03-16T17:43:04.354Z,0.57
2023-03-16T17:45:34.915Z,0.64
2023-03-16T17:48:15.550Z,0.72
2023-03-16T17:53:48.094Z,0.66
2023-03-16T17:56:20.882Z,0.51
2023-03-16T18:01:48.645Z,0.33
2023-03-16T18:04:23.870Z,0.31
2023-03-16T18:06:55.728Z,0.34
2023-03-16T18:09:28.857Z,0.37
2023-03-16T18:11:59.670Z,0.43
2023-03-16T18:14:37.649Z,0.48
2023-03-16T18:17:19.492Z,0.52
2023-03-16T18:19:52.691Z,0.55
2023-03-16T18:22:24.821Z,0.56
2023-03-16T18:24:56.849Z,0.60
2023-03-16T18:27:27.438Z,0.67
2023-03-16T18:29:58.080Z,0.60
2023-03-16T18:32:33.338Z,0.52
2023-03-16T18:38:29.942Z,0.28
2023-03-16T18:41:02.226Z,0.25
2023-03-16T18:46:47.077Z,0.29
2023-03-16T18:49:23.060Z,0.33
2023-03-16T18:51:55.602Z,0.34
2023-03-16T18:54:30.885Z,0.36
2023-03-16T18:57:04.524Z,0.38
2023-03-16T18:59:35.144Z,0.38
2023-03-16T19:02:05.947Z,0.37
2023-03-16T19:04:37.151Z,0.36
2023-03-16T19:07:11.621Z,0.36
2023-03-16T19:09:45.122Z,0.38
2023-03-16T19:12:19.179Z,0.39
2023-03-16T19:14:50.115Z,0.37
2023-03-16T19:17:20.748Z,0.37
2023-03-16T19:19:51.388Z,0.39
2023-03-16T19:22:22.767Z,0.35
2023-03-16T19:24:58.280Z,0.35
2023-03-16T19:27:35.601Z,0.33
2023-03-16T19:30:06.857Z,0.34
2023-03-16T19:32:38.859Z,0.34
2023-03-16T19:35:18.246Z,0.38
2023-03-16T19:37:48.896Z,0.39
2023-03-16T19:40:24.951Z,0.44
2023-03-16T19:42:55.677Z,0.33
2023-03-16T19:45:28.599Z,0.30
2023-03-16T19:47:59.473Z,0.18
2023-03-16T19:50:31.831Z,0.07
2023-03-16T19:53:03.199Z,0.18
2023-03-16T19:55:36.942Z,0.25
2023-03-16T19:58:09.139Z,0.37
2023-03-16T20:00:40.255Z,0.26
2023-03-16T20:03:14.889Z,0.00
2023-03-16T20:05:45.941Z,-0.32
2023-03-16T20:08:27.800Z,-0.39
2023-03-16T20:11:05.263Z,-0.44
2023-03-16T20:13:37.145Z,-0.57
2023-03-16T20:16:09.159Z,-0.59
2023-03-16T20:18:40.218Z,-0.59
2023-03-16T20:21:13.564Z,-0.72
2023-03-16T20:23:44.156Z,-0.59
2023-03-16T20:26:24.602Z,-0.54
2023-03-16T20:28:56.961Z,-0.45
2023-03-16T20:31:31.648Z,-0.37
2023-03-16T20:34:02.571Z,-0.15
2023-03-16T20:36:33.603Z,0.16
2023-03-16T20:39:04.244Z,0.65
2023-03-16T20:41:39.500Z,1.41
2023-03-16T20:44:18.224Z,2.30
2023-03-16T20:46:49.660Z,3.19
2023-03-16T20:49:33.045Z,3.85
2023-03-16T20:52:04.224Z,4.29
2023-03-16T20:54:34.739Z,4.66
2023-03-16T20:57:08.780Z,4.92
2023-03-16T20:59:40.463Z,5.21
2023-03-16T21:02:28.606Z,5.49
2023-03-16T21:05:00.606Z,5.75
2023-03-16T21:07:31.478Z,6.03
2023-03-16T21:10:02.203Z,6.17
2023-03-16T21:12:39.590Z,6.21
2023-03-16T21:15:19.694Z,6.15
2023-03-16T21:17:55.706Z,5.94
2023-03-16T21:20:27.323Z,5.67
2023-03-16T21:22:58.336Z,5.34
2023-03-16T21:25:31.729Z,5.05
2023-03-16T21:28:08.075Z,4.69
2023-03-16T21:30:42.929Z,4.43
2023-03-16T21:33:22.834Z,4.16
2023-03-16T21:35:53.456Z,3.92
2023-03-16T21:38:24.580Z,3.69
2023-03-16T21:40:55.568Z,3.44
2023-03-16T21:43:29.831Z,3.31
2023-03-16T21:46:00.946Z,3.18
2023-03-16T21:48:39.198Z,3.04
2023-03-16T21:51:16.938Z,2.88
2023-03-16T21:53:48.088Z,2.82
2023-03-16T21:56:21.101Z,2.70
2023-03-16T21:58:54.998Z,2.62
2023-03-16T22:01:27.983Z,2.55
2023-03-16T22:04:01.592Z,2.42
2023-03-16T22:06:32.602Z,2.33
2023-03-16T22:09:04.516Z,2.19
2023-03-16T22:11:35.348Z,2.13
2023-03-16T22:14:10.204Z,2.05
2023-03-16T22:16:41.944Z,1.98
2023-03-16T22:19:17.994Z,1.95
2023-03-16T22:21:50.101Z,1.93
2023-03-16T22:24:23.735Z,1.93
2023-03-16T22:26:55.036Z,1.91
2023-03-16T22:29:29.917Z,1.90
2023-03-16T22:32:03.325Z,1.89
2023-03-16T22:34:36.433Z,1.87
2023-03-16T22:37:08.334Z,1.80
2023-03-16T22:39:41.064Z,1.86
2023-03-16T22:42:28.294Z,1.86
2023-03-16T22:45:01.806Z,1.85
2023-03-16T22:47:37.152Z,1.84
2023-03-16T22:50:09.459Z,1.84
2023-03-16T22:52:41.059Z,1.82
2023-03-16T22:55:19.627Z,1.80
2023-03-16T22:57:53.449Z,1.77
2023-03-16T23:00:28.971Z,1.76
2023-03-16T23:02:59.468Z,1.75
2023-03-16T23:05:31.801Z,1.74
2023-03-16T23:08:05.885Z,1.73
2023-03-16T23:10:37.419Z,1.73
2023-03-16T23:13:15.815Z,1.73
2023-03-16T23:15:51.706Z,1.74
2023-03-16T23:18:24.367Z,1.73
2023-03-16T23:20:56.094Z,1.69
2023-03-16T23:23:26.754Z,1.65
2023-03-16T23:25:57.453Z,1.61
2023-03-16T23:28:28.460Z,1.61
2023-03-16T23:31:02.032Z,1.60
2023-03-16T23:33:32.775Z,1.59
2023-03-16T23:36:03.447Z,1.56
2023-03-16T23:38:34.148Z,1.59
2023-03-16T23:41:05.524Z,1.61
2023-03-16T23:43:36.095Z,1.59
2023-03-16T23:46:09.643Z,1.57
2023-03-16T23:48:41.672Z,1.61
2023-03-16T23:51:22.440Z,1.58
2023-03-16T23:53:53.322Z,1.61
2023-03-16T23:56:24.627Z,1.50
2023-03-16T23:58:55.526Z,1.62
